sensor_id;sensor_type;location;lat;lon;timestamp;temperature;humidity
48860;DHT22;34679;51.436;-2.518;2022-11-20T00:01:33;6.90;99.90
48860;DHT22;34679;51.436;-2.518;2022-11-20T00:03:59;6.90;99.90
48860;DHT22;34679;51.436;-2.518;2022-11-20T00:06:26;6.90;99.90
48860;DHT22;34679;51.436;-2.518;2022-11-20T00:08:55;6.90;99.90
48860;DHT22;34679;51.436;-2.518;2022-11-20T00:11:23;7.00;99.90
48860;DHT22;34679;51.436;-2.518;2022-11-20T00:13:51;6.90;99.90
48860;DHT22;34679;51.436;-2.518;2022-11-20T00:16:19;6.90;99.90
48860;DHT22;34679;51.436;-2.518;2022-11-20T00:18:45;6.90;99.90
48860;DHT22;34679;51.436;-2.518;2022-11-20T00:21:22;6.90;99.90
48860;DHT22;34679;51.436;-2.518;2022-11-20T00:23:50;6.90;99.90
48860;DHT22;34679;51.436;-2.518;2022-11-20T00:26:17;6.90;99.90
48860;DHT22;34679;51.436;-2.518;2022-11-20T00:28:44;6.80;99.90
48860;DHT22;34679;51.436;-2.518;2022-11-20T00:31:14;6.80;99.90
48860;DHT22;34679;51.436;-2.518;2022-11-20T00:33:41;6.80;99.90
48860;DHT22;34679;51.436;-2.518;2022-11-20T00:36:09;6.90;99.90
48860;DHT22;34679;51.436;-2.518;2022-11-20T00:38:36;6.90;99.90
48860;DHT22;34679;51.436;-2.518;2022-11-20T00:41:05;6.90;99.90
48860;DHT22;34679;51.436;-2.518;2022-11-20T00:43:31;6.90;99.90
48860;DHT22;34679;51.436;-2.518;2022-11-20T00:46:17;6.90;99.90
48860;DHT22;34679;51.436;-2.518;2022-11-20T00:48:44;6.90;99.90
48860;DHT22;34679;51.436;-2.518;2022-11-20T00:51:12;6.90;99.90
48860;DHT22;34679;51.436;-2.518;2022-11-20T00:53:38;6.90;99.90
48860;DHT22;34679;51.436;-2.518;2022-11-20T00:56:10;6.80;99.90
48860;DHT22;34679;51.436;-2.518;2022-11-20T00:58:38;6.80;99.90
48860;DHT22;34679;51.436;-2.518;2022-11-20T01:03:38;6.80;99.90
48860;DHT22;34679;51.436;-2.518;2022-11-20T01:06:06;6.80;99.90
48860;DHT22;34679;51.436;-2.518;2022-11-20T01:08:33;6.80;99.90
48860;DHT22;34679;51.436;-2.518;2022-11-20T01:11:05;6.80;99.90
48860;DHT22;34679;51.436;-2.518;2022-11-20T01:13:31;6.80;99.90
48860;DHT22;34679;51.436;-2.518;2022-11-20T01:18:33;6.90;99.90
48860;DHT22;34679;51.436;-2.518;2022-11-20T01:21:01;6.90;99.90
48860;DHT22;34679;51.436;-2.518;2022-11-20T01:23:31;6.80;99.90
48860;DHT22;34679;51.436;-2.518;2022-11-20T01:25:59;6.80;99.90
48860;DHT22;34679;51.436;-2.518;2022-11-20T01:28:25;6.90;99.90
48860;DHT22;34679;51.436;-2.518;2022-11-20T01:30:51;6.90;99.90
48860;DHT22;34679;51.436;-2.518;2022-11-20T01:33:17;6.90;99.90
48860;DHT22;34679;51.436;-2.518;2022-11-20T01:35:42;6.90;99.90
48860;DHT22;34679;51.436;-2.518;2022-11-20T01:38:08;6.90;99.90
48860;DHT22;34679;51.436;-2.518;2022-11-20T01:40:34;6.90;99.90
48860;DHT22;34679;51.436;-2.518;2022-11-20T01:43:32;6.90;99.90
48860;DHT22;34679;51.436;-2.518;2022-11-20T01:46:03;7.00;99.90
48860;DHT22;34679;51.436;-2.518;2022-11-20T01:48:36;7.00;99.90
48860;DHT22;34679;51.436;-2.518;2022-11-20T01:51:06;7.00;99.90
48860;DHT22;34679;51.436;-2.518;2022-11-20T01:53:37;7.00;99.90
48860;DHT22;34679;51.436;-2.518;2022-11-20T01:56:06;7.00;99.90
48860;DHT22;34679;51.436;-2.518;2022-11-20T01:58:36;7.10;99.90
48860;DHT22;34679;51.436;-2.518;2022-11-20T02:01:03;7.10;99.90
48860;DHT22;34679;51.436;-2.518;2022-11-20T02:03:29;7.10;99.90
48860;DHT22;34679;51.436;-2.518;2022-11-20T02:06:25;7.10;99.90
48860;DHT22;34679;51.436;-2.518;2022-11-20T02:08:54;7.10;99.90
48860;DHT22;34679;51.436;-2.518;2022-11-20T02:11:20;7.10;99.90
48860;DHT22;34679;51.436;-2.518;2022-11-20T02:13:46;7.10;99.90
48860;DHT22;34679;51.436;-2.518;2022-11-20T02:16:27;7.10;99.90
48860;DHT22;34679;51.436;-2.518;2022-11-20T02:18:55;7.10;99.90
48860;DHT22;34679;51.436;-2.518;2022-11-20T02:24:06;7.20;99.90
48860;DHT22;34679;51.436;-2.518;2022-11-20T02:26:59;7.20;99.90
48860;DHT22;34679;51.436;-2.518;2022-11-20T02:29:34;7.20;99.90
48860;DHT22;34679;51.436;-2.518;2022-11-20T02:32:01;7.20;99.90
48860;DHT22;34679;51.436;-2.518;2022-11-20T02:34:27;7.30;99.90
48860;DHT22;34679;51.436;-2.518;2022-11-20T02:36:54;7.30;99.90
48860;DHT22;34679;51.436;-2.518;2022-11-20T02:39:22;7.30;99.90
48860;DHT22;34679;51.436;-2.518;2022-11-20T02:41:52;7.30;99.90
48860;DHT22;34679;51.436;-2.518;2022-11-20T02:44:19;7.30;99.90
48860;DHT22;34679;51.436;-2.518;2022-11-20T02:46:45;7.30;99.90
48860;DHT22;34679;51.436;-2.518;2022-11-20T02:49:11;7.30;99.90
48860;DHT22;34679;51.436;-2.518;2022-11-20T02:51:36;7.40;99.90
48860;DHT22;34679;51.436;-2.518;2022-11-20T02:54:02;7.40;99.90
48860;DHT22;34679;51.436;-2.518;2022-11-20T02:56:28;7.40;99.90
48860;DHT22;34679;51.436;-2.518;2022-11-20T02:58:54;7.40;99.90
48860;DHT22;34679;51.436;-2.518;2022-11-20T03:01:21;7.40;99.90
48860;DHT22;34679;51.436;-2.518;2022-11-20T03:03:47;7.30;99.90
48860;DHT22;34679;51.436;-2.518;2022-11-20T03:06:15;7.30;99.90
48860;DHT22;34679;51.436;-2.518;2022-11-20T03:08:41;7.30;99.90
48860;DHT22;34679;51.436;-2.518;2022-11-20T03:11:07;7.50;99.90
48860;DHT22;34679;51.436;-2.518;2022-11-20T03:13:33;7.40;99.90
48860;DHT22;34679;51.436;-2.518;2022-11-20T03:16:06;7.40;99.90
48860;DHT22;34679;51.436;-2.518;2022-11-20T03:18:31;7.40;99.90
48860;DHT22;34679;51.436;-2.518;2022-11-20T03:20:58;7.40;99.90
48860;DHT22;34679;51.436;-2.518;2022-11-20T03:23:24;7.40;99.90
48860;DHT22;34679;51.436;-2.518;2022-11-20T03:25:50;7.40;99.90
48860;DHT22;34679;51.436;-2.518;2022-11-20T03:28:16;7.40;99.90
48860;DHT22;34679;51.436;-2.518;2022-11-20T03:30:42;7.50;99.90
48860;DHT22;34679;51.436;-2.518;2022-11-20T03:33:07;7.40;99.90
48860;DHT22;34679;51.436;-2.518;2022-11-20T03:35:33;7.40;99.90
48860;DHT22;34679;51.436;-2.518;2022-11-20T03:37:59;7.50;99.90
48860;DHT22;34679;51.436;-2.518;2022-11-20T03:40:24;7.50;99.90
48860;DHT22;34679;51.436;-2.518;2022-11-20T03:42:50;7.50;99.90
48860;DHT22;34679;51.436;-2.518;2022-11-20T03:45:17;7.40;99.90
48860;DHT22;34679;51.436;-2.518;2022-11-20T03:47:43;7.40;99.90
48860;DHT22;34679;51.436;-2.518;2022-11-20T03:50:11;7.30;99.90
48860;DHT22;34679;51.436;-2.518;2022-11-20T03:52:38;7.30;99.90
48860;DHT22;34679;51.436;-2.518;2022-11-20T03:55:05;7.20;99.90
48860;DHT22;34679;51.436;-2.518;2022-11-20T03:57:30;7.10;99.90
48860;DHT22;34679;51.436;-2.518;2022-11-20T03:59:56;7.10;99.90
48860;DHT22;34679;51.436;-2.518;2022-11-20T04:02:22;7.00;99.90
48860;DHT22;34679;51.436;-2.518;2022-11-20T04:04:47;7.00;99.90
48860;DHT22;34679;51.436;-2.518;2022-11-20T04:07:13;7.00;99.90
48860;DHT22;34679;51.436;-2.518;2022-11-20T04:09:39;7.00;99.90
48860;DHT22;34679;51.436;-2.518;2022-11-20T04:12:04;7.00;99.90
48860;DHT22;34679;51.436;-2.518;2022-11-20T04:14:30;7.10;99.90
48860;DHT22;34679;51.436;-2.518;2022-11-20T04:16:56;7.10;99.90
48860;DHT22;34679;51.436;-2.518;2022-11-20T04:19:21;7.20;99.90
48860;DHT22;34679;51.436;-2.518;2022-11-20T04:21:47;7.20;99.90
48860;DHT22;34679;51.436;-2.518;2022-11-20T04:24:13;7.20;99.90
48860;DHT22;34679;51.436;-2.518;2022-11-20T04:26:39;7.20;99.90
48860;DHT22;34679;51.436;-2.518;2022-11-20T04:29:05;7.10;99.90
48860;DHT22;34679;51.436;-2.518;2022-11-20T04:31:33;7.10;99.90
48860;DHT22;34679;51.436;-2.518;2022-11-20T04:34:01;7.00;99.90
48860;DHT22;34679;51.436;-2.518;2022-11-20T04:36:28;7.00;99.90
48860;DHT22;34679;51.436;-2.518;2022-11-20T04:39:03;7.00;99.90
48860;DHT22;34679;51.436;-2.518;2022-11-20T04:41:31;7.00;99.90
48860;DHT22;34679;51.436;-2.518;2022-11-20T04:44:00;7.00;99.90
48860;DHT22;34679;51.436;-2.518;2022-11-20T04:46:39;6.90;99.90
48860;DHT22;34679;51.436;-2.518;2022-11-20T04:49:06;6.90;99.90
48860;DHT22;34679;51.436;-2.518;2022-11-20T04:51:33;7.10;99.90
48860;DHT22;34679;51.436;-2.518;2022-11-20T04:53:59;7.10;99.90
48860;DHT22;34679;51.436;-2.518;2022-11-20T04:56:24;7.10;99.90
48860;DHT22;34679;51.436;-2.518;2022-11-20T04:58:50;7.10;99.90
48860;DHT22;34679;51.436;-2.518;2022-11-20T05:01:19;7.20;99.90
48860;DHT22;34679;51.436;-2.518;2022-11-20T05:03:45;7.20;99.90
48860;DHT22;34679;51.436;-2.518;2022-11-20T05:06:16;7.20;99.90
48860;DHT22;34679;51.436;-2.518;2022-11-20T05:08:42;7.30;99.90
48860;DHT22;34679;51.436;-2.518;2022-11-20T05:11:13;7.40;99.90
48860;DHT22;34679;51.436;-2.518;2022-11-20T05:13:40;7.40;99.90
48860;DHT22;34679;51.436;-2.518;2022-11-20T05:16:10;7.40;99.90
48860;DHT22;34679;51.436;-2.518;2022-11-20T05:18:37;7.30;99.90
48860;DHT22;34679;51.436;-2.518;2022-11-20T05:21:02;7.30;99.90
48860;DHT22;34679;51.436;-2.518;2022-11-20T05:23:30;7.50;99.90
48860;DHT22;34679;51.436;-2.518;2022-11-20T05:25:57;7.10;99.90
48860;DHT22;34679;51.436;-2.518;2022-11-20T05:28:23;7.10;99.90
48860;DHT22;34679;51.436;-2.518;2022-11-20T05:30:50;7.10;99.90
48860;DHT22;34679;51.436;-2.518;2022-11-20T05:33:16;7.00;99.90
48860;DHT22;34679;51.436;-2.518;2022-11-20T05:35:42;6.90;99.90
48860;DHT22;34679;51.436;-2.518;2022-11-20T05:38:08;6.80;99.90
48860;DHT22;34679;51.436;-2.518;2022-11-20T05:40:33;6.90;99.90
48860;DHT22;34679;51.436;-2.518;2022-11-20T05:43:00;6.90;99.90
48860;DHT22;34679;51.436;-2.518;2022-11-20T05:45:25;6.90;99.90
48860;DHT22;34679;51.436;-2.518;2022-11-20T05:47:51;6.80;99.90
48860;DHT22;34679;51.436;-2.518;2022-11-20T05:50:17;6.80;99.90
48860;DHT22;34679;51.436;-2.518;2022-11-20T05:52:43;6.90;99.90
48860;DHT22;34679;51.436;-2.518;2022-11-20T05:55:09;6.90;99.90
48860;DHT22;34679;51.436;-2.518;2022-11-20T05:57:34;7.00;99.90
48860;DHT22;34679;51.436;-2.518;2022-11-20T06:00:00;7.00;99.90
48860;DHT22;34679;51.436;-2.518;2022-11-20T06:02:26;6.90;99.90
48860;DHT22;34679;51.436;-2.518;2022-11-20T06:04:52;6.90;99.90
48860;DHT22;34679;51.436;-2.518;2022-11-20T06:07:17;6.90;99.90
48860;DHT22;34679;51.436;-2.518;2022-11-20T06:09:43;6.90;99.90
48860;DHT22;34679;51.436;-2.518;2022-11-20T06:12:09;6.90;99.90
48860;DHT22;34679;51.436;-2.518;2022-11-20T06:14:34;6.90;99.90
48860;DHT22;34679;51.436;-2.518;2022-11-20T06:17:00;6.90;99.90
48860;DHT22;34679;51.436;-2.518;2022-11-20T06:19:26;6.80;99.90
48860;DHT22;34679;51.436;-2.518;2022-11-20T06:21:51;6.90;99.90
48860;DHT22;34679;51.436;-2.518;2022-11-20T06:24:17;6.80;99.90
48860;DHT22;34679;51.436;-2.518;2022-11-20T06:26:43;6.80;99.90
48860;DHT22;34679;51.436;-2.518;2022-11-20T06:29:09;6.80;99.90
48860;DHT22;34679;51.436;-2.518;2022-11-20T06:31:35;6.80;99.90
48860;DHT22;34679;51.436;-2.518;2022-11-20T06:34:04;6.70;99.90
48860;DHT22;34679;51.436;-2.518;2022-11-20T06:36:31;6.60;99.90
48860;DHT22;34679;51.436;-2.518;2022-11-20T06:38:56;6.70;99.90
48860;DHT22;34679;51.436;-2.518;2022-11-20T06:41:23;6.60;99.90
48860;DHT22;34679;51.436;-2.518;2022-11-20T06:43:49;6.50;99.90
48860;DHT22;34679;51.436;-2.518;2022-11-20T06:46:16;6.40;99.90
48860;DHT22;34679;51.436;-2.518;2022-11-20T06:48:45;6.40;99.90
48860;DHT22;34679;51.436;-2.518;2022-11-20T06:51:11;6.30;99.90
48860;DHT22;34679;51.436;-2.518;2022-11-20T06:53:37;6.20;99.90
48860;DHT22;34679;51.436;-2.518;2022-11-20T06:56:03;6.10;99.90
48860;DHT22;34679;51.436;-2.518;2022-11-20T06:58:32;6.10;99.90
48860;DHT22;34679;51.436;-2.518;2022-11-20T07:01:06;6.00;99.90
48860;DHT22;34679;51.436;-2.518;2022-11-20T07:03:32;5.90;99.90
48860;DHT22;34679;51.436;-2.518;2022-11-20T07:05:58;5.90;99.90
48860;DHT22;34679;51.436;-2.518;2022-11-20T07:08:25;5.90;99.90
48860;DHT22;34679;51.436;-2.518;2022-11-20T07:10:51;5.80;99.90
48860;DHT22;34679;51.436;-2.518;2022-11-20T07:13:17;5.70;99.90
48860;DHT22;34679;51.436;-2.518;2022-11-20T07:15:42;5.70;99.90
48860;DHT22;34679;51.436;-2.518;2022-11-20T07:18:08;5.70;99.90
48860;DHT22;34679;51.436;-2.518;2022-11-20T07:20:34;5.70;99.90
48860;DHT22;34679;51.436;-2.518;2022-11-20T07:22:59;5.60;99.90
48860;DHT22;34679;51.436;-2.518;2022-11-20T07:25:27;5.60;99.90
48860;DHT22;34679;51.436;-2.518;2022-11-20T07:27:56;5.50;99.90
48860;DHT22;34679;51.436;-2.518;2022-11-20T07:30:21;5.50;99.90
48860;DHT22;34679;51.436;-2.518;2022-11-20T07:32:51;5.50;99.90
48860;DHT22;34679;51.436;-2.518;2022-11-20T07:35:17;5.50;99.90
48860;DHT22;34679;51.436;-2.518;2022-11-20T07:37:42;5.60;99.90
48860;DHT22;34679;51.436;-2.518;2022-11-20T07:40:09;5.50;99.90
48860;DHT22;34679;51.436;-2.518;2022-11-20T07:42:35;5.40;99.90
48860;DHT22;34679;51.436;-2.518;2022-11-20T07:45:00;5.50;99.90
48860;DHT22;34679;51.436;-2.518;2022-11-20T07:47:26;5.40;99.90
48860;DHT22;34679;51.436;-2.518;2022-11-20T07:49:51;5.40;99.90
48860;DHT22;34679;51.436;-2.518;2022-11-20T07:52:17;5.40;99.90
48860;DHT22;34679;51.436;-2.518;2022-11-20T07:54:43;5.50;99.90
48860;DHT22;34679;51.436;-2.518;2022-11-20T07:57:08;5.40;99.90
48860;DHT22;34679;51.436;-2.518;2022-11-20T07:59:34;5.40;99.90
48860;DHT22;34679;51.436;-2.518;2022-11-20T08:02:00;5.40;99.90
48860;DHT22;34679;51.436;-2.518;2022-11-20T08:04:25;5.40;99.90
48860;DHT22;34679;51.436;-2.518;2022-11-20T08:06:54;5.40;99.90
48860;DHT22;34679;51.436;-2.518;2022-11-20T08:09:20;5.40;99.90
48860;DHT22;34679;51.436;-2.518;2022-11-20T08:11:45;5.40;99.90
48860;DHT22;34679;51.436;-2.518;2022-11-20T08:14:29;5.40;99.90
48860;DHT22;34679;51.436;-2.518;2022-11-20T08:16:55;5.20;99.90
48860;DHT22;34679;51.436;-2.518;2022-11-20T08:19:20;5.20;99.90
48860;DHT22;34679;51.436;-2.518;2022-11-20T08:21:46;5.10;99.90
48860;DHT22;34679;51.436;-2.518;2022-11-20T08:24:12;5.00;99.90
48860;DHT22;34679;51.436;-2.518;2022-11-20T08:26:38;5.10;99.90
48860;DHT22;34679;51.436;-2.518;2022-11-20T08:29:05;5.10;99.90
48860;DHT22;34679;51.436;-2.518;2022-11-20T08:31:31;5.10;99.90
48860;DHT22;34679;51.436;-2.518;2022-11-20T08:33:57;5.20;99.90
48860;DHT22;34679;51.436;-2.518;2022-11-20T08:36:23;5.40;99.90
48860;DHT22;34679;51.436;-2.518;2022-11-20T08:38:51;5.60;99.90
48860;DHT22;34679;51.436;-2.518;2022-11-20T08:41:17;5.90;99.90
48860;DHT22;34679;51.436;-2.518;2022-11-20T08:43:49;6.10;99.90
48860;DHT22;34679;51.436;-2.518;2022-11-20T08:46:16;6.20;99.90
48860;DHT22;34679;51.436;-2.518;2022-11-20T08:48:42;6.10;99.90
48860;DHT22;34679;51.436;-2.518;2022-11-20T08:51:08;6.20;99.90
48860;DHT22;34679;51.436;-2.518;2022-11-20T08:53:34;6.40;99.90
48860;DHT22;34679;51.436;-2.518;2022-11-20T08:56:00;7.00;99.90
48860;DHT22;34679;51.436;-2.518;2022-11-20T08:58:26;7.50;99.90
48860;DHT22;34679;51.436;-2.518;2022-11-20T09:00:52;8.10;99.90
48860;DHT22;34679;51.436;-2.518;2022-11-20T09:03:18;8.60;99.90
48860;DHT22;34679;51.436;-2.518;2022-11-20T09:05:44;9.00;99.90
48860;DHT22;34679;51.436;-2.518;2022-11-20T09:08:09;9.20;99.90
48860;DHT22;34679;51.436;-2.518;2022-11-20T09:10:35;9.40;99.90
48860;DHT22;34679;51.436;-2.518;2022-11-20T09:13:02;9.30;99.90
48860;DHT22;34679;51.436;-2.518;2022-11-20T09:15:27;9.30;99.90
48860;DHT22;34679;51.436;-2.518;2022-11-20T09:17:55;9.10;99.90
48860;DHT22;34679;51.436;-2.518;2022-11-20T09:20:22;9.30;99.90
48860;DHT22;34679;51.436;-2.518;2022-11-20T09:22:48;9.10;99.90
48860;DHT22;34679;51.436;-2.518;2022-11-20T09:25:13;9.00;99.90
48860;DHT22;34679;51.436;-2.518;2022-11-20T09:27:39;8.90;99.90
48860;DHT22;34679;51.436;-2.518;2022-11-20T09:30:07;8.90;99.90
48860;DHT22;34679;51.436;-2.518;2022-11-20T09:32:33;9.00;99.90
48860;DHT22;34679;51.436;-2.518;2022-11-20T09:34:59;9.00;99.90
48860;DHT22;34679;51.436;-2.518;2022-11-20T09:37:24;8.90;99.90
48860;DHT22;34679;51.436;-2.518;2022-11-20T09:39:50;9.00;99.90
48860;DHT22;34679;51.436;-2.518;2022-11-20T09:48:26;9.00;99.90
48860;DHT22;34679;51.436;-2.518;2022-11-20T09:56:17;9.30;99.90
48860;DHT22;34679;51.436;-2.518;2022-11-20T09:59:05;9.40;99.90
48860;DHT22;34679;51.436;-2.518;2022-11-20T10:01:35;9.50;99.90
48860;DHT22;34679;51.436;-2.518;2022-11-20T10:04:04;9.50;99.90
48860;DHT22;34679;51.436;-2.518;2022-11-20T10:25:15;9.30;99.90
48860;DHT22;34679;51.436;-2.518;2022-11-20T10:27:54;9.30;99.90
48860;DHT22;34679;51.436;-2.518;2022-11-20T10:30:22;9.30;99.90
48860;DHT22;34679;51.436;-2.518;2022-11-20T10:33:00;9.30;99.90
48860;DHT22;34679;51.436;-2.518;2022-11-20T10:35:57;9.20;99.90
48860;DHT22;34679;51.436;-2.518;2022-11-20T10:38:31;9.30;99.90
48860;DHT22;34679;51.436;-2.518;2022-11-20T10:41:02;9.30;99.90
48860;DHT22;34679;51.436;-2.518;2022-11-20T10:43:47;9.30;99.90
48860;DHT22;34679;51.436;-2.518;2022-11-20T10:46:20;9.30;99.90
48860;DHT22;34679;51.436;-2.518;2022-11-20T10:48:50;9.30;99.90
48860;DHT22;34679;51.436;-2.518;2022-11-20T10:56:35;9.40;99.90
48860;DHT22;34679;51.436;-2.518;2022-11-20T11:02:23;9.40;99.90
48860;DHT22;34679;51.436;-2.518;2022-11-20T11:04:53;9.50;99.90
48860;DHT22;34679;51.436;-2.518;2022-11-20T11:07:35;9.50;99.90
48860;DHT22;34679;51.436;-2.518;2022-11-20T11:10:21;9.60;99.90
48860;DHT22;34679;51.436;-2.518;2022-11-20T11:12:48;9.70;99.90
48860;DHT22;34679;51.436;-2.518;2022-11-20T11:18:10;9.80;99.90
48860;DHT22;34679;51.436;-2.518;2022-11-20T11:20:37;9.90;99.90
48860;DHT22;34679;51.436;-2.518;2022-11-20T11:23:03;9.90;99.90
48860;DHT22;34679;51.436;-2.518;2022-11-20T11:25:35;9.90;99.90
48860;DHT22;34679;51.436;-2.518;2022-11-20T11:28:20;9.90;99.90
48860;DHT22;34679;51.436;-2.518;2022-11-20T11:30:46;10.00;99.90
48860;DHT22;34679;51.436;-2.518;2022-11-20T11:33:25;10.10;99.90
48860;DHT22;34679;51.436;-2.518;2022-11-20T11:35:53;10.10;99.90
48860;DHT22;34679;51.436;-2.518;2022-11-20T11:38:35;10.10;99.90
48860;DHT22;34679;51.436;-2.518;2022-11-20T11:41:03;10.20;99.90
48860;DHT22;34679;51.436;-2.518;2022-11-20T11:43:32;10.20;99.90
48860;DHT22;34679;51.436;-2.518;2022-11-20T11:51:58;10.40;99.90
48860;DHT22;34679;51.436;-2.518;2022-11-20T12:00:06;10.80;99.90
48860;DHT22;34679;51.436;-2.518;2022-11-20T12:05:27;11.10;99.90
48860;DHT22;34679;51.436;-2.518;2022-11-20T12:07:56;11.10;99.90
48860;DHT22;34679;51.436;-2.518;2022-11-20T12:10:38;11.00;99.90
48860;DHT22;34679;51.436;-2.518;2022-11-20T12:15:50;10.60;99.90
48860;DHT22;34679;51.436;-2.518;2022-11-20T12:18:21;10.40;99.90
48860;DHT22;34679;51.436;-2.518;2022-11-20T12:29:22;9.60;99.90
48860;DHT22;34679;51.436;-2.518;2022-11-20T12:35:04;9.50;99.90
48860;DHT22;34679;51.436;-2.518;2022-11-20T12:37:44;9.50;99.90
48860;DHT22;34679;51.436;-2.518;2022-11-20T12:46:05;9.60;99.90
48860;DHT22;34679;51.436;-2.518;2022-11-20T12:48:54;9.80;99.90
48860;DHT22;34679;51.436;-2.518;2022-11-20T13:07:35;9.70;99.90
48860;DHT22;34679;51.436;-2.518;2022-11-20T13:10:03;9.80;99.90
48860;DHT22;34679;51.436;-2.518;2022-11-20T13:12:47;9.80;99.90
48860;DHT22;34679;51.436;-2.518;2022-11-20T13:15:58;9.90;99.90
48860;DHT22;34679;51.436;-2.518;2022-11-20T13:18:22;9.80;99.90
48860;DHT22;34679;51.436;-2.518;2022-11-20T13:20:48;9.70;99.90
48860;DHT22;34679;51.436;-2.518;2022-11-20T13:23:25;9.80;99.90
48860;DHT22;34679;51.436;-2.518;2022-11-20T13:26:03;9.90;99.90
48860;DHT22;34679;51.436;-2.518;2022-11-20T13:28:30;9.90;99.90
48860;DHT22;34679;51.436;-2.518;2022-11-20T13:30:57;9.90;99.90
48860;DHT22;34679;51.436;-2.518;2022-11-20T13:33:34;9.80;99.90
48860;DHT22;34679;51.436;-2.518;2022-11-20T13:36:05;9.80;99.90
48860;DHT22;34679;51.436;-2.518;2022-11-20T13:38:48;9.90;99.90
48860;DHT22;34679;51.436;-2.518;2022-11-20T13:41:43;9.90;99.90
48860;DHT22;34679;51.436;-2.518;2022-11-20T13:44:42;9.90;99.90
48860;DHT22;34679;51.436;-2.518;2022-11-20T13:47:24;9.90;99.90
48860;DHT22;34679;51.436;-2.518;2022-11-20T13:49:51;9.80;99.90
48860;DHT22;34679;51.436;-2.518;2022-11-20T13:52:46;9.70;99.90
48860;DHT22;34679;51.436;-2.518;2022-11-20T14:00:51;9.40;99.90
48860;DHT22;34679;51.436;-2.518;2022-11-20T14:03:21;9.40;99.90
48860;DHT22;34679;51.436;-2.518;2022-11-20T14:06:00;9.30;99.90
48860;DHT22;34679;51.436;-2.518;2022-11-20T14:08:37;9.30;99.90
48860;DHT22;34679;51.436;-2.518;2022-11-20T14:11:05;9.30;99.90
48860;DHT22;34679;51.436;-2.518;2022-11-20T14:13:31;9.20;99.90
48860;DHT22;34679;51.436;-2.518;2022-11-20T14:15:57;9.20;99.90
48860;DHT22;34679;51.436;-2.518;2022-11-20T14:18:26;9.10;99.90
48860;DHT22;34679;51.436;-2.518;2022-11-20T14:20:52;9.00;99.90
48860;DHT22;34679;51.436;-2.518;2022-11-20T14:23:26;8.90;99.90
48860;DHT22;34679;51.436;-2.518;2022-11-20T14:25:52;8.90;99.90
48860;DHT22;34679;51.436;-2.518;2022-11-20T14:28:25;8.80;99.90
48860;DHT22;34679;51.436;-2.518;2022-11-20T14:30:51;8.80;99.90
48860;DHT22;34679;51.436;-2.518;2022-11-20T14:33:18;8.80;99.90
48860;DHT22;34679;51.436;-2.518;2022-11-20T14:35:50;8.70;99.90
48860;DHT22;34679;51.436;-2.518;2022-11-20T14:38:31;8.70;99.90
48860;DHT22;34679;51.436;-2.518;2022-11-20T14:41:08;8.80;99.90
48860;DHT22;34679;51.436;-2.518;2022-11-20T14:43:34;8.70;99.90
48860;DHT22;34679;51.436;-2.518;2022-11-20T14:46:07;8.80;99.90
48860;DHT22;34679;51.436;-2.518;2022-11-20T14:48:45;8.70;99.90
48860;DHT22;34679;51.436;-2.518;2022-11-20T14:51:34;8.70;99.90
48860;DHT22;34679;51.436;-2.518;2022-11-20T14:54:17;8.80;99.90
48860;DHT22;34679;51.436;-2.518;2022-11-20T14:57:00;8.80;99.90
48860;DHT22;34679;51.436;-2.518;2022-11-20T14:59:32;8.80;99.90
48860;DHT22;34679;51.436;-2.518;2022-11-20T15:02:03;8.80;99.90
48860;DHT22;34679;51.436;-2.518;2022-11-20T15:04:29;8.90;99.90
48860;DHT22;34679;51.436;-2.518;2022-11-20T15:06:57;8.90;99.90
48860;DHT22;34679;51.436;-2.518;2022-11-20T15:09:23;9.00;99.90
48860;DHT22;34679;51.436;-2.518;2022-11-20T15:12:00;9.10;99.90
48860;DHT22;34679;51.436;-2.518;2022-11-20T15:14:27;9.20;99.90
48860;DHT22;34679;51.436;-2.518;2022-11-20T15:16:54;9.20;99.90
48860;DHT22;34679;51.436;-2.518;2022-11-20T15:19:22;9.30;99.90
48860;DHT22;34679;51.436;-2.518;2022-11-20T15:21:48;9.30;99.90
48860;DHT22;34679;51.436;-2.518;2022-11-20T15:24:15;9.30;99.90
48860;DHT22;34679;51.436;-2.518;2022-11-20T15:26:41;9.40;99.90
48860;DHT22;34679;51.436;-2.518;2022-11-20T15:29:12;9.30;99.90
48860;DHT22;34679;51.436;-2.518;2022-11-20T15:31:39;9.30;99.90
48860;DHT22;34679;51.436;-2.518;2022-11-20T15:34:14;9.30;99.90
48860;DHT22;34679;51.436;-2.518;2022-11-20T15:36:40;9.30;99.90
48860;DHT22;34679;51.436;-2.518;2022-11-20T15:39:07;9.30;99.90
48860;DHT22;34679;51.436;-2.518;2022-11-20T15:41:42;9.20;99.90
48860;DHT22;34679;51.436;-2.518;2022-11-20T15:44:09;9.10;99.90
48860;DHT22;34679;51.436;-2.518;2022-11-20T15:46:38;9.10;99.90
48860;DHT22;34679;51.436;-2.518;2022-11-20T15:49:12;9.10;99.90
48860;DHT22;34679;51.436;-2.518;2022-11-20T15:51:43;9.00;99.90
48860;DHT22;34679;51.436;-2.518;2022-11-20T15:54:14;8.90;99.90
48860;DHT22;34679;51.436;-2.518;2022-11-20T15:56:41;8.80;99.90
48860;DHT22;34679;51.436;-2.518;2022-11-20T15:59:07;8.80;99.90
48860;DHT22;34679;51.436;-2.518;2022-11-20T16:01:33;8.70;99.90
48860;DHT22;34679;51.436;-2.518;2022-11-20T16:04:00;8.70;99.90
48860;DHT22;34679;51.436;-2.518;2022-11-20T16:06:26;8.60;99.90
48860;DHT22;34679;51.436;-2.518;2022-11-20T16:08:52;8.50;99.90
48860;DHT22;34679;51.436;-2.518;2022-11-20T16:11:18;8.50;99.90
48860;DHT22;34679;51.436;-2.518;2022-11-20T16:13:44;8.50;99.90
48860;DHT22;34679;51.436;-2.518;2022-11-20T16:16:34;8.40;99.90
48860;DHT22;34679;51.436;-2.518;2022-11-20T16:19:00;8.40;99.90
48860;DHT22;34679;51.436;-2.518;2022-11-20T16:21:27;8.40;99.90
48860;DHT22;34679;51.436;-2.518;2022-11-20T16:24:04;8.40;99.90
48860;DHT22;34679;51.436;-2.518;2022-11-20T16:26:31;8.30;99.90
48860;DHT22;34679;51.436;-2.518;2022-11-20T16:28:59;8.30;99.90
48860;DHT22;34679;51.436;-2.518;2022-11-20T16:31:25;8.20;99.90
48860;DHT22;34679;51.436;-2.518;2022-11-20T16:33:51;8.30;99.90
48860;DHT22;34679;51.436;-2.518;2022-11-20T16:36:18;8.30;99.90
48860;DHT22;34679;51.436;-2.518;2022-11-20T16:38:45;8.20;99.90
48860;DHT22;34679;51.436;-2.518;2022-11-20T16:41:11;8.10;99.90
48860;DHT22;34679;51.436;-2.518;2022-11-20T16:43:44;8.00;99.90
48860;DHT22;34679;51.436;-2.518;2022-11-20T16:46:11;8.00;99.90
48860;DHT22;34679;51.436;-2.518;2022-11-20T16:48:37;7.90;99.90
48860;DHT22;34679;51.436;-2.518;2022-11-20T16:51:03;7.90;99.90
48860;DHT22;34679;51.436;-2.518;2022-11-20T16:53:28;7.80;99.90
48860;DHT22;34679;51.436;-2.518;2022-11-20T16:56:11;7.60;99.90
48860;DHT22;34679;51.436;-2.518;2022-11-20T16:58:38;7.50;99.90
48860;DHT22;34679;51.436;-2.518;2022-11-20T17:01:08;7.50;99.90
48860;DHT22;34679;51.436;-2.518;2022-11-20T17:03:39;7.40;99.90
48860;DHT22;34679;51.436;-2.518;2022-11-20T17:06:11;7.40;99.90
48860;DHT22;34679;51.436;-2.518;2022-11-20T17:08:37;7.30;99.90
48860;DHT22;34679;51.436;-2.518;2022-11-20T17:11:11;7.30;99.90
48860;DHT22;34679;51.436;-2.518;2022-11-20T17:13:37;7.30;99.90
48860;DHT22;34679;51.436;-2.518;2022-11-20T17:16:08;7.30;99.90
48860;DHT22;34679;51.436;-2.518;2022-11-20T17:18:34;7.30;99.90
48860;DHT22;34679;51.436;-2.518;2022-11-20T17:21:01;7.30;99.90
48860;DHT22;34679;51.436;-2.518;2022-11-20T17:23:31;7.40;99.90
48860;DHT22;34679;51.436;-2.518;2022-11-20T17:26:06;7.50;99.90
48860;DHT22;34679;51.436;-2.518;2022-11-20T17:28:32;7.60;99.90